Pagrindinis puslapis
METAR-TAF:

METAR-TAF

Oro uostai :

Haidarabadas, Indija

platuma: 17-27N, ilguma: 078-28E, Aukštis: 530 m

Dabartinis oras

Ataskaita buvo paskelbta 4 valandos ir 27 minutes, ne 16:00 UTC
Vėjas 5 kt iš Vakarų/Pietvakarių
Temperatūra 25°C
Drėgmė 89%
Slėgis 1007 hPa
Matomumas: 5000 m
Išsisklaidę debesys ne aukštis 1500 ft
Su prošvaistėmis ne aukštis 10000 ft
rūkana

METAR: VOHY 221600Z 25005KT 5000 BR SCT015 BKN100 25/23 Q1007 NOSIG

Laikas: 01:57 (20:27 UTC)

Prognozė

Ataskaita buvo paskelbta 3 valandos ir 27 minutes, ne 17:00 UTC
Prognozė galioja nuo 22 metu 18 UTC su 23 metu 03 UTC
Vėjas 7 kt iš Vakarų
Matomumas: 3000 m
Išsisklaidę debesys ne aukštis 1000 ft
Išsisklaidę debesys ne aukštis 1500 ft
Apsiniaukę ne aukštis 8000 ft
lietus, rūkana
Laikinai
nuo 22 metu 23 UTC su 23 metu 03 UTC
Matomumas: 1500 m
Su prošvaistėmis ne aukštis 800 ft
Mažai debesys ne aukštis 3000 ft, Liūtiniai kamuoliniai debesys.
lietus, rūkana

TAF: VOHY 221700Z 2218/2303 26007KT 3000 RA BR SCT010 SCT015 OVC080 TEMPO 2223/2303 1500 RA BR BKN008 FEW030CB

Orai ataskaitas ir orų prognozės (METAR, TAF).

turimą stotys yra geltonos ir raudonos taškus žemėlapyje.

Perkelti pele per norėdami pamatyti stoties vardą.

Tada spustelėkite, norėdami matyti oro stebėjimo ir prognozės.

Norėdami pakeisti žemėlapį: spustelėkite ant žalios mygtukų su juodo kryžiaus žemyn,; žalią mygtuką su brūkšneliu, jei norite nutolinti; arba žalių rodyklių gretimoms žemėlapius.


METAR-TAF: